Time;durP1;ratioP1;P1;durP2;ratioP2;P2;SDS_P1;SDS_P2;PMS_P1;PMS_P2;Temp;Humidity;BMP_temperature;BMP_pressure;BME280_temperature;BME280_humidity;BME280_pressure;Samples;Min_cycle;Max_cycle;Signal;HPM_P1;HPM_P2
2020/12/16 00:01:07;;;;;;;135.50;40.17;;;;;;;;;;5024807;28;20190;-71
2020/12/16 00:03:33;;;;;;;188.53;45.37;;;;;;;;;;5009759;28;20676;-71
2020/12/16 00:05:59;;;;;;;181.77;45.13;;;;;;;;;;5014504;28;20198;-71
2020/12/16 00:08:25;;;;;;;178.47;42.43;;;;;;;;;;5010331;28;20301;-71
2020/12/16 00:10:50;;;;;;;142.67;38.40;;;;;;;;;;5020360;28;20284;-72
2020/12/16 00:13:16;;;;;;;123.70;36.60;;;;;;;;;;5012130;28;20190;-71
2020/12/16 00:15:41;;;;;;;109.83;35.97;;;;;;;;;;5030780;28;20178;-71
2020/12/16 00:18:06;;;;;;;156.50;40.07;;;;;;;;;;5017639;28;20721;-71
2020/12/16 00:20:32;;;;;;;130.37;36.80;;;;;;;;;;5030616;28;20178;-72
2020/12/16 00:22:57;;;;;;;166.20;42.30;;;;;;;;;;5016636;28;20645;-71
2020/12/16 00:25:23;;;;;;;184.50;43.33;;;;;;;;;;5028617;28;20192;-71
2020/12/16 00:27:48;;;;;;;139.87;39.87;;;;;;;;;;5025150;28;20661;-70
2020/12/16 00:30:14;;;;;;;190.80;44.80;;;;;;;;;;5020861;28;20197;-70
2020/12/16 00:32:39;;;;;;;145.83;39.63;;;;;;;;;;5025319;28;20634;-70
2020/12/16 00:35:06;;;;;;;162.10;42.33;;;;;;;;;;5020951;28;20222;-70
2020/12/16 00:37:41;;;;;;;208.63;44.77;;;;;;;;;;5025812;28;20669;-70
2020/12/16 00:40:08;;;;;;;153.43;42.23;;;;;;;;;;5036250;28;20194;-70
2020/12/16 00:42:34;;;;;;;150.80;39.78;;;;;;;;;;5025945;28;20261;-72
2020/12/16 00:45:00;;;;;;;95.50;34.13;;;;;;;;;;5016321;28;20329;-72
2020/12/16 00:47:25;;;;;;;125.13;38.67;;;;;;;;;;5026988;28;20190;-72
2020/12/16 00:49:51;;;;;;;120.00;37.20;;;;;;;;;;5021253;28;20213;-72
2020/12/16 00:52:17;;;;;;;112.23;35.47;;;;;;;;;;5025234;28;20718;-72
2020/12/16 00:54:43;;;;;;;114.20;37.20;;;;;;;;;;5019012;28;20649;-72
2020/12/16 00:57:08;;;;;;;143.57;37.17;;;;;;;;;;5025789;28;20182;-72
2020/12/16 00:59:34;;;;;;;127.73;37.37;;;;;;;;;;5027345;28;20591;-72
2020/12/16 01:02:03;;;;;;;105.20;37.20;;;;;;;;;;5021756;28;20190;-72
2020/12/16 01:04:28;;;;;;;120.53;36.97;;;;;;;;;;5028468;28;20264;-72
2020/12/16 01:06:53;;;;;;;104.18;36.90;;;;;;;;;;5016952;28;20811;-72
2020/12/16 01:09:19;;;;;;;136.37;39.33;;;;;;;;;;5028807;28;20209;-72
2020/12/16 01:11:44;;;;;;;121.57;38.20;;;;;;;;;;5017785;28;20192;-72
2020/12/16 01:14:09;;;;;;;112.07;38.75;;;;;;;;;;5029100;28;20809;-70
2020/12/16 01:16:36;;;;;;;122.77;37.47;;;;;;;;;;5017495;28;20236;-69
2020/12/16 01:19:04;;;;;;;122.83;37.00;;;;;;;;;;5026265;28;20573;-70
2020/12/16 01:21:32;;;;;;;125.20;37.47;;;;;;;;;;5018409;28;20561;-70
2020/12/16 01:23:57;;;;;;;137.07;38.80;;;;;;;;;;5028869;28;20192;-72
2020/12/16 01:26:23;;;;;;;119.53;36.57;;;;;;;;;;5017744;28;20181;-70
2020/12/16 01:28:48;;;;;;;128.57;37.20;;;;;;;;;;5019631;28;20238;-70
2020/12/16 01:31:13;;;;;;;135.67;38.17;;;;;;;;;;5016209;28;20687;-70
2020/12/16 01:33:39;;;;;;;127.03;34.13;;;;;;;;;;5035737;28;20772;-70
2020/12/16 01:36:04;;;;;;;108.33;34.70;;;;;;;;;;5021471;28;20194;-70
2020/12/16 01:38:29;;;;;;;107.67;33.53;;;;;;;;;;5018785;28;20178;-70
2020/12/16 01:41:05;;;;;;;114.27;34.60;;;;;;;;;;5025584;28;20190;-70
2020/12/16 01:43:36;;;;;;;121.87;34.53;;;;;;;;;;5018372;28;20193;-70
2020/12/16 01:46:01;;;;;;;105.97;33.30;;;;;;;;;;5025776;28;20204;-69
2020/12/16 01:48:27;;;;;;;139.20;35.17;;;;;;;;;;5016072;28;20364;-69
2020/12/16 01:50:52;;;;;;;129.90;35.57;;;;;;;;;;5023509;28;20197;-69
2020/12/16 01:53:18;;;;;;;128.73;34.53;;;;;;;;;;5017400;28;20208;-70
2020/12/16 01:55:45;;;;;;;109.00;33.00;;;;;;;;;;5025295;28;20670;-70
2020/12/16 01:58:16;;;;;;;141.63;37.30;;;;;;;;;;5018136;28;20205;-70
2020/12/16 02:00:42;;;;;;;123.27;35.40;;;;;;;;;;5024639;28;20185;-70
2020/12/16 02:03:10;;;;;;;133.83;33.50;;;;;;;;;;5008433;28;20190;-70
2020/12/16 02:05:39;;;;;;;111.13;32.17;;;;;;;;;;5023687;28;20178;-70
2020/12/16 02:08:06;;;;;;;110.43;32.30;;;;;;;;;;5017838;28;20222;-70
2020/12/16 02:10:33;;;;;;;101.63;30.97;;;;;;;;;;5025821;28;20174;-70
2020/12/16 02:12:58;;;;;;;123.23;33.23;;;;;;;;;;5025065;28;20630;-70
2020/12/16 02:15:23;;;;;;;102.97;31.27;;;;;;;;;;5019105;28;20243;-70
2020/12/16 02:17:49;;;;;;;99.90;29.90;;;;;;;;;;5024197;28;20182;-70
2020/12/16 02:20:14;;;;;;;109.03;32.10;;;;;;;;;;5016974;28;20536;-70
2020/12/16 02:22:46;;;;;;;115.10;32.47;;;;;;;;;;5024307;28;20258;-70
2020/12/16 02:25:11;;;;;;;115.67;33.97;;;;;;;;;;5018465;28;20182;-69
2020/12/16 02:27:38;;;;;;;133.73;33.50;;;;;;;;;;5017708;28;20532;-72
2020/12/16 02:30:07;;;;;;;128.33;34.63;;;;;;;;;;5016271;28;20240;-70
2020/12/16 02:32:32;;;;;;;119.17;33.43;;;;;;;;;;5026656;28;20186;-69
2020/12/16 02:34:58;;;;;;;121.13;34.20;;;;;;;;;;5017770;28;20234;-70
2020/12/16 02:37:24;;;;;;;127.60;33.40;;;;;;;;;;5024096;28;20267;-70
2020/12/16 02:39:50;;;;;;;113.60;33.60;;;;;;;;;;5015899;28;20194;-70
2020/12/16 02:42:27;;;;;;;112.37;32.53;;;;;;;;;;5025713;28;20548;-70
2020/12/16 02:44:53;;;;;;;112.83;31.90;;;;;;;;;;5018991;28;20192;-70
2020/12/16 02:47:20;;;;;;;105.93;32.13;;;;;;;;;;5026134;28;20225;-70
2020/12/16 02:49:45;;;;;;;96.30;29.97;;;;;;;;;;5024235;28;20202;-70
2020/12/16 02:52:11;;;;;;;108.53;31.13;;;;;;;;;;5014801;28;20186;-69
2020/12/16 02:54:36;;;;;;;94.13;29.37;;;;;;;;;;5026293;28;20232;-69
2020/12/16 02:57:03;;;;;;;95.40;30.33;;;;;;;;;;5014923;28;20288;-69
2020/12/16 02:59:29;;;;;;;78.00;28.67;;;;;;;;;;5028019;28;20224;-69
2020/12/16 03:01:55;;;;;;;101.67;30.13;;;;;;;;;;5012248;28;20657;-69
2020/12/16 03:04:22;;;;;;;104.30;31.73;;;;;;;;;;5018769;28;20217;-69
2020/12/16 03:06:53;;;;;;;99.93;31.57;;;;;;;;;;5014642;28;20214;-69
2020/12/16 03:09:20;;;;;;;101.27;31.17;;;;;;;;;;5027054;28;20220;-69
2020/12/16 03:11:50;;;;;;;116.07;32.47;;;;;;;;;;5017767;28;20209;-70
2020/12/16 03:14:15;;;;;;;147.60;34.90;;;;;;;;;;5027152;28;20248;-69
2020/12/16 03:16:40;;;;;;;131.53;32.20;;;;;;;;;;5016682;28;20190;-70
2020/12/16 03:19:06;;;;;;;128.03;34.03;;;;;;;;;;5032049;28;20249;-69
2020/12/16 03:21:32;;;;;;;120.70;30.87;;;;;;;;;;5021486;28;20194;-69
2020/12/16 03:23:57;;;;;;;132.83;34.30;;;;;;;;;;5021236;28;20179;-69
2020/12/16 03:26:22;;;;;;;138.93;33.60;;;;;;;;;;5025705;28;20190;-69
2020/12/16 03:28:48;;;;;;;136.20;34.10;;;;;;;;;;5017500;28;20548;-69
2020/12/16 03:31:14;;;;;;;137.20;34.13;;;;;;;;;;5027529;28;20212;-69
2020/12/16 03:33:41;;;;;;;124.60;33.97;;;;;;;;;;5022036;28;20225;-72
2020/12/16 03:36:06;;;;;;;158.20;34.80;;;;;;;;;;5029211;28;20272;-71
2020/12/16 03:38:32;;;;;;;170.23;36.40;;;;;;;;;;5019574;28;20261;-72
2020/12/16 03:40:57;;;;;;;140.07;35.93;;;;;;;;;;5022177;28;20193;-72
2020/12/16 03:43:23;;;;;;;152.37;35.53;;;;;;;;;;5021149;28;20268;-72
2020/12/16 03:45:49;;;;;;;198.17;39.07;;;;;;;;;;5026227;28;20673;-72
2020/12/16 03:48:15;;;;;;;168.37;36.77;;;;;;;;;;5020013;28;20178;-71
2020/12/16 03:50:40;;;;;;;157.90;37.03;;;;;;;;;;5027074;28;20259;-71
2020/12/16 03:53:06;;;;;;;167.13;37.27;;;;;;;;;;5019921;28;20591;-71
2020/12/16 03:55:31;;;;;;;147.53;35.87;;;;;;;;;;5025017;28;20201;-71
2020/12/16 03:57:56;;;;;;;196.07;40.57;;;;;;;;;;5031421;28;20174;-72
2020/12/16 04:00:22;;;;;;;178.80;39.57;;;;;;;;;;5017546;28;20682;-71
2020/12/16 04:02:47;;;;;;;179.83;38.47;;;;;;;;;;5030978;28;20190;-71
2020/12/16 04:05:12;;;;;;;132.20;33.57;;;;;;;;;;5015586;28;20273;-72
2020/12/16 04:07:37;;;;;;;119.67;34.17;;;;;;;;;;5029827;28;20213;-71
2020/12/16 04:10:03;;;;;;;127.03;34.50;;;;;;;;;;5018743;28;20209;-71
2020/12/16 04:12:28;;;;;;;119.80;31.97;;;;;;;;;;5030264;28;20198;-72
2020/12/16 04:14:53;;;;;;;99.43;31.67;;;;;;;;;;5017162;28;20220;-71
2020/12/16 04:17:19;;;;;;;131.07;34.23;;;;;;;;;;5029215;28;20178;-71
2020/12/16 04:19:44;;;;;;;146.03;35.13;;;;;;;;;;5017601;28;20182;-71
2020/12/16 04:22:10;;;;;;;177.00;37.63;;;;;;;;;;5029157;28;20224;-71
2020/12/16 04:24:35;;;;;;;100.27;31.73;;;;;;;;;;5014180;28;20185;-71
2020/12/16 04:27:00;;;;;;;164.43;38.97;;;;;;;;;;5029333;28;20190;-71
2020/12/16 04:29:26;;;;;;;121.60;35.83;;;;;;;;;;5026385;28;20209;-71
2020/12/16 04:31:52;;;;;;;104.70;34.10;;;;;;;;;;5017801;28;20186;-71
2020/12/16 04:34:18;;;;;;;99.07;34.97;;;;;;;;;;5025329;28;20553;-71
2020/12/16 04:36:48;;;;;;;93.27;35.07;;;;;;;;;;5021354;28;20229;-71
2020/12/16 04:39:15;;;;;;;91.17;35.23;;;;;;;;;;5023936;28;20186;-72
2020/12/16 04:41:41;;;;;;;84.23;34.97;;;;;;;;;;5021949;28;20526;-71
2020/12/16 04:44:09;;;;;;;92.93;37.17;;;;;;;;;;5023492;28;20239;-71
2020/12/16 04:46:38;;;;;;;79.10;34.27;;;;;;;;;;5022513;28;20225;-72
2020/12/16 04:49:04;;;;;;;96.03;37.80;;;;;;;;;;5022115;28;20593;-72
2020/12/16 04:51:33;;;;;;;98.67;39.13;;;;;;;;;;5018083;28;21959;-72
2020/12/16 04:53:59;;;;;;;105.63;38.90;;;;;;;;;;5024560;28;20698;-72
2020/12/16 04:56:25;;;;;;;98.43;38.60;;;;;;;;;;5007403;28;20190;-72
2020/12/16 04:58:51;;;;;;;106.83;41.67;;;;;;;;;;5021070;28;20178;-72
2020/12/16 05:01:16;;;;;;;95.67;37.43;;;;;;;;;;5019473;28;20214;-72
2020/12/16 05:03:41;;;;;;;119.60;42.07;;;;;;;;;;5020993;28;20206;-72
2020/12/16 05:06:07;;;;;;;113.57;42.00;;;;;;;;;;5029740;28;20197;-72
2020/12/16 05:08:32;;;;;;;117.33;43.73;;;;;;;;;;5018856;28;20210;-72
2020/12/16 05:10:57;;;;;;;107.17;41.37;;;;;;;;;;5030040;28;20198;-72
2020/12/16 05:13:25;;;;;;;116.33;44.27;;;;;;;;;;5016600;28;20237;-72
2020/12/16 05:15:51;;;;;;;108.87;43.50;;;;;;;;;;5030376;28;20185;-72
2020/12/16 05:18:22;;;;;;;110.80;42.77;;;;;;;;;;5016906;28;20324;-72
2020/12/16 05:20:49;;;;;;;120.30;45.13;;;;;;;;;;5015812;28;20189;-72
2020/12/16 05:23:15;;;;;;;118.10;44.73;;;;;;;;;;5017440;28;20264;-72
2020/12/16 05:25:57;;;;;;;135.27;43.53;;;;;;;;;;5017960;28;20549;-72
2020/12/16 05:28:34;;;;;;;120.03;44.17;;;;;;;;;;5016773;28;20251;-72
2020/12/16 05:31:03;;;;;;;117.10;43.93;;;;;;;;;;5025047;28;20738;-71
2020/12/16 05:33:28;;;;;;;126.70;46.27;;;;;;;;;;5018499;28;20229;-72
2020/12/16 05:35:55;;;;;;;111.40;42.10;;;;;;;;;;5020711;28;20548;-71
2020/12/16 05:38:21;;;;;;;112.30;44.87;;;;;;;;;;5017001;28;20189;-72
2020/12/16 05:40:47;;;;;;;118.50;44.10;;;;;;;;;;5024118;28;20183;-72
2020/12/16 05:43:26;;;;;;;107.37;43.33;;;;;;;;;;5026208;28;20269;-70
2020/12/16 05:45:51;;;;;;;126.83;45.00;;;;;;;;;;5026853;28;20307;-71
2020/12/16 05:48:17;;;;;;;134.27;45.97;;;;;;;;;;5024890;28;20260;-70
2020/12/16 05:50:48;;;;;;;123.60;47.03;;;;;;;;;;5018860;28;20177;-70
2020/12/16 05:53:19;;;;;;;130.17;46.07;;;;;;;;;;5024812;28;20245;-70
2020/12/16 05:55:55;;;;;;;143.17;47.40;;;;;;;;;;4319398;28;10000851;-70
2020/12/16 05:58:22;;;;;;;134.33;46.17;;;;;;;;;;5022424;28;20649;-70
2020/12/16 06:00:58;;;;;;;151.07;48.87;;;;;;;;;;5013211;28;20316;-70
2020/12/16 06:03:24;;;;;;;159.47;49.20;;;;;;;;;;5015793;28;20196;-70
2020/12/16 06:05:55;;;;;;;171.47;49.90;;;;;;;;;;5012846;28;20198;-70
2020/12/16 06:08:22;;;;;;;179.77;51.10;;;;;;;;;;5015920;28;20207;-70
2020/12/16 06:10:49;;;;;;;166.67;52.00;;;;;;;;;;5012634;28;20186;-70
2020/12/16 06:13:15;;;;;;;175.00;51.20;;;;;;;;;;5013511;28;20555;-70
2020/12/16 06:15:59;;;;;;;211.43;54.30;;;;;;;;;;5010938;28;20189;-70
2020/12/16 06:18:28;;;;;;;192.23;53.87;;;;;;;;;;5040815;28;20240;-72
2020/12/16 06:20:54;;;;;;;186.20;53.27;;;;;;;;;;5009674;28;20204;-72
2020/12/16 06:23:21;;;;;;;203.30;54.03;;;;;;;;;;5012527;28;20551;-72
2020/12/16 06:25:49;;;;;;;174.50;52.43;;;;;;;;;;5007244;28;20186;-72
2020/12/16 06:28:14;;;;;;;176.67;53.20;;;;;;;;;;5019983;28;20178;-72
2020/12/16 06:30:49;;;;;;;185.80;53.93;;;;;;;;;;5016037;28;20712;-72
2020/12/16 06:33:30;;;;;;;191.93;52.37;;;;;;;;;;5017782;28;20302;-72
2020/12/16 06:36:02;;;;;;;177.90;52.23;;;;;;;;;;5017460;28;20280;-72
2020/12/16 06:38:28;;;;;;;208.80;53.20;;;;;;;;;;5003882;28;20185;-72
2020/12/16 06:40:55;;;;;;;160.80;48.77;;;;;;;;;;5020211;28;20184;-72
2020/12/16 06:43:44;;;;;;;173.50;49.57;;;;;;;;;;5015591;28;20217;-72
2020/12/16 06:46:30;;;;;;;182.47;49.53;;;;;;;;;;5021695;28;20591;-72
2020/12/16 06:48:55;;;;;;;171.53;49.53;;;;;;;;;;5012339;28;20219;-72
2020/12/16 06:51:23;;;;;;;260.90;53.33;;;;;;;;;;5020426;28;20648;-72
2020/12/16 06:54:02;;;;;;;242.50;50.00;;;;;;;;;;5012535;28;20658;-72
2020/12/16 06:56:28;;;;;;;584.27;52.40;;;;;;;;;;5028625;28;20643;-72
2020/12/16 06:58:53;;;;;;;747.40;64.47;;;;;;;;;;5017810;28;20255;-70
2020/12/16 07:01:19;;;;;;;702.27;61.63;;;;;;;;;;5026973;28;20670;-70
2020/12/16 07:03:44;;;;;;;451.63;55.23;;;;;;;;;;5017954;28;20235;-70
2020/12/16 07:06:11;;;;;;;327.20;47.53;;;;;;;;;;5029547;28;20253;-69
2020/12/16 07:08:37;;;;;;;305.53;42.17;;;;;;;;;;5018294;28;20563;-70
2020/12/16 07:11:03;;;;;;;534.47;53.27;;;;;;;;;;5028218;28;20756;-72
2020/12/16 07:13:31;;;;;;;590.43;52.53;;;;;;;;;;5022562;28;20276;-71
2020/12/16 07:16:09;;;;;;;445.73;44.53;;;;;;;;;;5026740;28;20178;-72
2020/12/16 07:18:45;;;;;;;549.73;47.80;;;;;;;;;;5016949;28;20215;-72
2020/12/16 07:21:16;;;;;;;441.07;40.23;;;;;;;;;;5025519;28;20184;-71
2020/12/16 07:23:47;;;;;;;247.03;32.67;;;;;;;;;;5016422;28;20191;-71
2020/12/16 07:26:24;;;;;;;439.43;37.80;;;;;;;;;;5026811;28;20256;-71
2020/12/16 07:28:50;;;;;;;308.00;33.67;;;;;;;;;;5018944;28;20758;-71
2020/12/16 07:31:16;;;;;;;353.93;33.83;;;;;;;;;;5017711;28;20273;-71
2020/12/16 07:33:41;;;;;;;322.70;31.07;;;;;;;;;;5024874;28;20226;-71
2020/12/16 07:36:08;;;;;;;376.20;35.13;;;;;;;;;;5016050;28;20186;-72
2020/12/16 07:38:33;;;;;;;356.73;32.67;;;;;;;;;;5020036;28;20178;-72
2020/12/16 07:40:59;;;;;;;336.23;31.53;;;;;;;;;;5012661;28;20887;-72
2020/12/16 07:43:24;;;;;;;359.43;35.00;;;;;;;;;;5020536;28;20308;-71
2020/12/16 07:46:08;;;;;;;234.63;30.50;;;;;;;;;;5012428;28;20667;-71
2020/12/16 07:48:34;;;;;;;153.97;25.90;;;;;;;;;;5022890;28;20201;-71
2020/12/16 07:51:07;;;;;;;195.60;31.10;;;;;;;;;;5018651;28;20212;-71
2020/12/16 07:53:34;;;;;;;196.00;30.47;;;;;;;;;;5024463;28;20186;-71
2020/12/16 07:56:03;;;;;;;206.80;27.73;;;;;;;;;;5016558;28;20240;-71
2020/12/16 07:58:31;;;;;;;123.10;26.00;;;;;;;;;;5023940;28;20573;-71
2020/12/16 08:01:09;;;;;;;63.97;24.00;;;;;;;;;;5016946;28;20182;-71
2020/12/16 08:03:35;;;;;;;204.97;31.27;;;;;;;;;;5024697;28;20182;-71
2020/12/16 08:06:01;;;;;;;266.23;33.77;;;;;;;;;;5017962;28;20279;-71
2020/12/16 08:08:27;;;;;;;215.30;29.13;;;;;;;;;;5024288;28;20208;-71
2020/12/16 08:10:52;;;;;;;477.77;45.40;;;;;;;;;;5016839;28;20189;-71
2020/12/16 08:13:23;;;;;;;444.23;43.67;;;;;;;;;;5023414;28;20186;-71
2020/12/16 08:15:48;;;;;;;359.77;39.57;;;;;;;;;;5026210;28;20190;-71
2020/12/16 08:18:17;;;;;;;292.43;34.10;;;;;;;;;;5017982;28;20276;-71
2020/12/16 08:20:43;;;;;;;378.60;39.40;;;;;;;;;;5023133;28;20236;-71
2020/12/16 08:23:12;;;;;;;326.93;35.17;;;;;;;;;;5018006;28;20267;-71
2020/12/16 08:25:37;;;;;;;453.07;49.00;;;;;;;;;;5022357;28;20186;-71
2020/12/16 08:28:06;;;;;;;566.07;60.77;;;;;;;;;;5014800;28;20190;-71
2020/12/16 08:30:32;;;;;;;226.47;38.60;;;;;;;;;;5023261;28;20250;-71
2020/12/16 08:33:07;;;;;;;242.77;41.67;;;;;;;;;;5013914;28;20542;-71
2020/12/16 08:35:41;;;;;;;510.27;55.00;;;;;;;;;;5019650;28;20209;-71
2020/12/16 08:38:09;;;;;;;399.00;49.13;;;;;;;;;;5012815;28;20273;-71
2020/12/16 08:40:46;;;;;;;606.60;62.63;;;;;;;;;;5020673;28;20222;-71
2020/12/16 08:43:16;;;;;;;420.63;50.97;;;;;;;;;;5015280;28;20252;-72
2020/12/16 08:45:42;;;;;;;343.13;46.07;;;;;;;;;;5021138;28;20194;-71
2020/12/16 08:48:08;;;;;;;481.23;56.10;;;;;;;;;;5017355;28;20186;-71
2020/12/16 08:50:33;;;;;;;439.30;55.40;;;;;;;;;;5024387;28;20516;-71
2020/12/16 08:53:00;;;;;;;704.57;70.43;;;;;;;;;;5017719;28;20649;-71
2020/12/16 08:55:25;;;;;;;502.07;56.97;;;;;;;;;;5025465;28;20194;-71
2020/12/16 08:58:00;;;;;;;449.00;55.27;;;;;;;;;;5033607;28;20675;-71
2020/12/16 09:00:27;;;;;;;466.77;58.47;;;;;;;;;;5013333;28;20189;-71
2020/12/16 09:03:22;;;;;;;347.27;51.53;;;;;;;;;;5026276;28;20814;-71
2020/12/16 09:05:48;;;;;;;236.63;43.13;;;;;;;;;;5018070;28;20279;-71
2020/12/16 09:08:15;;;;;;;304.57;54.57;;;;;;;;;;5026388;28;20610;-71
2020/12/16 09:10:42;;;;;;;352.00;56.93;;;;;;;;;;5013453;28;20222;-71
2020/12/16 09:13:12;;;;;;;174.60;44.97;;;;;;;;;;5020793;28;20684;-71
2020/12/16 09:15:38;;;;;;;169.27;47.77;;;;;;;;;;5010832;28;20190;-72
2020/12/16 09:18:04;;;;;;;160.67;45.80;;;;;;;;;;5024786;28;20232;-72
2020/12/16 09:20:31;;;;;;;165.23;46.23;;;;;;;;;;5017769;28;20185;-72
2020/12/16 09:22:57;;;;;;;146.17;46.53;;;;;;;;;;5020867;28;20268;-72
2020/12/16 09:25:23;;;;;;;134.63;45.87;;;;;;;;;;5008370;28;20602;-72
2020/12/16 09:27:53;;;;;;;147.63;49.37;;;;;;;;;;5025340;28;20210;-72
2020/12/16 09:30:32;;;;;;;125.20;45.67;;;;;;;;;;5015901;28;20724;-72
2020/12/16 09:33:09;;;;;;;136.57;46.77;;;;;;;;;;5023049;28;20193;-72
2020/12/16 09:35:34;;;;;;;126.97;45.60;;;;;;;;;;5011705;28;20336;-72
2020/12/16 09:38:00;;;;;;;112.40;44.07;;;;;;;;;;5020394;28;20689;-72
2020/12/16 09:40:28;;;;;;;118.93;44.67;;;;;;;;;;5011925;28;24360;-72
2020/12/16 09:42:59;;;;;;;117.83;44.37;;;;;;;;;;5021774;28;20190;-72
2020/12/16 09:45:24;;;;;;;117.37;44.10;;;;;;;;;;5017083;28;20265;-72
2020/12/16 09:47:51;;;;;;;111.57;44.53;;;;;;;;;;5019624;28;20566;-72
2020/12/16 09:50:26;;;;;;;100.47;44.60;;;;;;;;;;5021386;28;20198;-72
2020/12/16 09:52:56;;;;;;;98.23;41.97;;;;;;;;;;5010935;28;20193;-72
2020/12/16 09:55:22;;;;;;;106.97;42.90;;;;;;;;;;4328537;28;10001435;-72
2020/12/16 09:58:01;;;;;;;95.50;42.40;;;;;;;;;;5007982;28;20198;-72
2020/12/16 10:00:27;;;;;;;99.57;42.60;;;;;;;;;;5023944;28;20217;-72
2020/12/16 10:03:05;;;;;;;97.43;41.10;;;;;;;;;;5008479;28;20865;-72
2020/12/16 10:05:35;;;;;;;90.53;40.50;;;;;;;;;;5016606;28;20186;-72
2020/12/16 10:08:01;;;;;;;78.20;38.50;;;;;;;;;;5004643;28;20202;-72
2020/12/16 10:10:27;;;;;;;80.37;37.87;;;;;;;;;;5025397;28;20271;-72
2020/12/16 10:12:53;;;;;;;79.07;38.47;;;;;;;;;;5008303;28;20263;-72
2020/12/16 10:15:19;;;;;;;81.90;38.23;;;;;;;;;;5012153;28;20197;-72
2020/12/16 10:17:44;;;;;;;74.73;36.47;;;;;;;;;;5008242;28;20551;-72
2020/12/16 10:20:11;;;;;;;79.40;37.40;;;;;;;;;;5018378;28;20269;-72
2020/12/16 10:22:36;;;;;;;73.17;36.90;;;;;;;;;;5003792;28;22030;-72
2020/12/16 10:25:03;;;;;;;74.13;36.20;;;;;;;;;;5015100;28;20190;-72
2020/12/16 10:27:28;;;;;;;76.43;37.00;;;;;;;;;;5018945;28;20189;-72
2020/12/16 10:29:55;;;;;;;80.40;38.50;;;;;;;;;;5007797;28;20217;-72
2020/12/16 10:32:21;;;;;;;79.53;37.70;;;;;;;;;;5022175;28;20218;-70
2020/12/16 10:34:46;;;;;;;80.77;38.40;;;;;;;;;;5015698;28;20242;-74
2020/12/16 10:37:12;;;;;;;76.80;36.87;;;;;;;;;;5019295;28;20190;-70
2020/12/16 10:39:37;;;;;;;67.93;36.10;;;;;;;;;;5012255;28;20186;-70
2020/12/16 10:42:02;;;;;;;67.53;33.73;;;;;;;;;;5020689;28;20193;-70
2020/12/16 10:44:28;;;;;;;62.07;33.80;;;;;;;;;;5009295;28;20195;-70
2020/12/16 10:46:54;;;;;;;52.47;28.20;;;;;;;;;;5018700;28;20202;-70
2020/12/16 10:49:21;;;;;;;43.60;24.37;;;;;;;;;;5012903;28;20221;-70
2020/12/16 10:51:47;;;;;;;40.67;23.70;;;;;;;;;;5022894;28;20182;-70
2020/12/16 10:54:12;;;;;;;45.43;23.77;;;;;;;;;;5016438;28;20260;-70
2020/12/16 10:56:37;;;;;;;39.00;22.33;;;;;;;;;;5019767;28;20208;-72
2020/12/16 10:59:03;;;;;;;35.50;21.00;;;;;;;;;;5015650;28;20182;-72
2020/12/16 11:01:29;;;;;;;35.03;21.27;;;;;;;;;;5011802;28;20197;-72
2020/12/16 11:03:54;;;;;;;33.60;20.00;;;;;;;;;;5025745;28;20281;-72
2020/12/16 11:06:20;;;;;;;32.90;19.87;;;;;;;;;;5011996;28;20685;-72
2020/12/16 11:08:45;;;;;;;33.93;19.63;;;;;;;;;;5024007;28;20807;-72
2020/12/16 11:11:11;;;;;;;32.70;18.57;;;;;;;;;;5015375;28;20189;-72
2020/12/16 11:13:36;;;;;;;27.53;17.83;;;;;;;;;;5025957;28;20273;-72
2020/12/16 11:16:02;;;;;;;31.33;18.53;;;;;;;;;;5014884;28;20695;-72
2020/12/16 11:18:27;;;;;;;27.53;18.33;;;;;;;;;;5025020;28;20197;-72
2020/12/16 11:20:53;;;;;;;30.83;17.93;;;;;;;;;;5011023;28;20190;-72
2020/12/16 11:23:18;;;;;;;27.03;17.20;;;;;;;;;;4675614;28;10000467;-72
2020/12/16 11:25:43;;;;;;;27.47;17.87;;;;;;;;;;5012306;28;20198;-72
2020/12/16 11:28:09;;;;;;;26.60;16.93;;;;;;;;;;5023482;28;20190;-72
2020/12/16 11:30:34;;;;;;;24.08;16.77;;;;;;;;;;4671695;28;9999804;-72
2020/12/16 11:33:00;;;;;;;26.80;16.35;;;;;;;;;;5010501;28;20204;-72
2020/12/16 11:35:25;;;;;;;27.67;16.83;;;;;;;;;;5019898;28;20267;-72
2020/12/16 11:38:00;;;;;;;26.48;16.16;;;;;;;;;;5004441;28;10000463;-72
2020/12/16 11:40:26;;;;;;;24.27;15.93;;;;;;;;;;5014752;28;20402;-72
2020/12/16 11:42:51;;;;;;;26.73;16.47;;;;;;;;;;5009688;28;20317;-72
2020/12/16 11:45:16;;;;;;;21.55;15.68;;;;;;;;;;5019419;28;20285;-73
2020/12/16 11:47:41;;;;;;;24.08;15.73;;;;;;;;;;5010815;28;20201;-72
2020/12/16 11:50:09;;;;;;;23.70;16.37;;;;;;;;;;5020833;28;20566;-72
2020/12/16 11:52:35;;;;;;;24.53;15.37;;;;;;;;;;5012407;28;20608;-72
2020/12/16 11:55:00;;;;;;;22.92;15.20;;;;;;;;;;5025545;28;20221;-72
2020/12/16 11:57:26;;;;;;;23.23;15.15;;;;;;;;;;5013368;28;20286;-72
2020/12/16 11:59:51;;;;;;;23.45;15.40;;;;;;;;;;5025157;28;20269;-73
2020/12/16 12:02:16;;;;;;;21.38;15.05;;;;;;;;;;5021834;28;20564;-72
2020/12/16 12:04:42;;;;;;;25.37;16.10;;;;;;;;;;5011583;28;20191;-72
2020/12/16 12:07:08;;;;;;;21.97;14.50;;;;;;;;;;5026995;28;20340;-72
2020/12/16 12:09:34;;;;;;;20.67;13.90;;;;;;;;;;5012674;28;20249;-72
2020/12/16 12:11:59;;;;;;;22.08;13.55;;;;;;;;;;5023769;28;20811;-72
2020/12/16 12:14:24;;;;;;;17.98;13.18;;;;;;;;;;5017168;28;20663;-72
2020/12/16 12:16:50;;;;;;;19.13;13.80;;;;;;;;;;5020576;28;20186;-72
2020/12/16 12:19:16;;;;;;;20.42;13.85;;;;;;;;;;5016147;28;20649;-72
2020/12/16 12:21:42;;;;;;;18.08;12.68;;;;;;;;;;5019105;28;20196;-72
2020/12/16 12:24:07;;;;;;;22.13;13.80;;;;;;;;;;5018063;28;20751;-73
2020/12/16 12:26:33;;;;;;;22.20;13.13;;;;;;;;;;5023464;28;20594;-72
2020/12/16 12:28:58;;;;;;;20.92;13.45;;;;;;;;;;5011565;28;20232;-72
2020/12/16 12:31:24;;;;;;;19.13;13.13;;;;;;;;;;5021545;28;20194;-72
2020/12/16 12:33:49;;;;;;;17.58;12.25;;;;;;;;;;5026488;28;20255;-72
2020/12/16 12:36:14;;;;;;;19.55;12.52;;;;;;;;;;5018871;28;20190;-72
2020/12/16 12:38:40;;;;;;;20.10;12.98;;;;;;;;;;5029139;28;20550;-72
2020/12/16 12:41:05;;;;;;;17.33;12.65;;;;;;;;;;5014963;28;20186;-71
2020/12/16 12:43:30;;;;;;;15.88;11.43;;;;;;;;;;5024758;28;20277;-72
2020/12/16 12:45:56;;;;;;;18.85;11.27;;;;;;;;;;5018762;28;20308;-72
2020/12/16 12:48:21;;;;;;;15.77;11.43;;;;;;;;;;5025671;28;20190;-71
2020/12/16 12:50:46;;;;;;;15.88;11.13;;;;;;;;;;5020156;28;20186;-71
2020/12/16 12:53:12;;;;;;;15.65;11.02;;;;;;;;;;5028784;28;20190;-71
2020/12/16 12:55:38;;;;;;;17.45;11.80;;;;;;;;;;5015773;28;20186;-72
2020/12/16 12:58:05;;;;;;;17.80;11.65;;;;;;;;;;5027658;28;20216;-71
2020/12/16 13:00:30;;;;;;;16.67;11.45;;;;;;;;;;5014798;28;20182;-72
2020/12/16 13:02:57;;;;;;;15.85;10.98;;;;;;;;;;5021453;28;20555;-72
2020/12/16 13:05:22;;;;;;;15.90;10.57;;;;;;;;;;5023242;28;20233;-72
2020/12/16 13:07:47;;;;;;;14.25;10.80;;;;;;;;;;5015482;28;20858;-72
2020/12/16 13:10:13;;;;;;;15.32;10.93;;;;;;;;;;5016481;28;20611;-72
2020/12/16 13:12:39;;;;;;;16.25;10.57;;;;;;;;;;5009026;28;20686;-72
2020/12/16 13:15:04;;;;;;;15.43;11.35;;;;;;;;;;5017425;28;20205;-72
2020/12/16 13:17:29;;;;;;;17.60;10.95;;;;;;;;;;5015903;28;20263;-72
2020/12/16 13:19:56;;;;;;;15.57;11.25;;;;;;;;;;5013238;28;20671;-72
2020/12/16 13:22:22;;;;;;;13.68;10.80;;;;;;;;;;5004700;28;20213;-72
2020/12/16 13:24:51;;;;;;;15.95;10.98;;;;;;;;;;5020999;28;20190;-72
2020/12/16 13:27:26;;;;;;;14.90;11.18;;;;;;;;;;5031788;28;20216;-72
2020/12/16 13:29:52;;;;;;;16.50;11.75;;;;;;;;;;5018166;28;20263;-72
2020/12/16 13:32:18;;;;;;;18.93;12.00;;;;;;;;;;5010069;28;20198;-72
2020/12/16 13:34:45;;;;;;;17.10;11.73;;;;;;;;;;5018379;28;20236;-72
2020/12/16 13:37:11;;;;;;;17.00;11.57;;;;;;;;;;5016744;28;20586;-72
2020/12/16 13:39:36;;;;;;;15.13;11.30;;;;;;;;;;5013315;28;20197;-72
2020/12/16 13:42:02;;;;;;;17.07;12.00;;;;;;;;;;5018003;28;20179;-72
2020/12/16 13:44:27;;;;;;;18.17;11.83;;;;;;;;;;5005111;28;20194;-72
2020/12/16 13:46:52;;;;;;;17.23;11.83;;;;;;;;;;5016199;28;20588;-72
2020/12/16 13:49:19;;;;;;;18.23;12.00;;;;;;;;;;5008191;28;20704;-72
2020/12/16 13:51:45;;;;;;;15.50;11.70;;;;;;;;;;5016000;28;20216;-72
2020/12/16 13:54:10;;;;;;;16.37;11.90;;;;;;;;;;5010797;28;20210;-72
2020/12/16 13:56:35;;;;;;;18.30;12.18;;;;;;;;;;5019824;28;20620;-72
2020/12/16 13:59:01;;;;;;;15.53;11.73;;;;;;;;;;5009250;28;20627;-72
2020/12/16 14:01:28;;;;;;;16.10;11.27;;;;;;;;;;5014046;28;20179;-72
2020/12/16 14:03:53;;;;;;;16.67;10.80;;;;;;;;;;5015452;28;20743;-72
2020/12/16 14:06:19;;;;;;;14.70;11.02;;;;;;;;;;5023285;28;20189;-72
2020/12/16 14:08:44;;;;;;;16.37;10.70;;;;;;;;;;5017207;28;20210;-72